sensor_id;sensor_type;location;lat;lon;timestamp;temperature;humidity
31991;DHT22;18508;49.386;8.370;2022-11-15T00:00:07;10.10;99.90
31991;DHT22;18508;49.386;8.370;2022-11-15T00:03:17;10.00;99.90
31991;DHT22;18508;49.386;8.370;2022-11-15T00:05:46;10.00;99.90
31991;DHT22;18508;49.386;8.370;2022-11-15T00:08:17;10.00;99.90
31991;DHT22;18508;49.386;8.370;2022-11-15T00:10:54;10.00;99.90
31991;DHT22;18508;49.386;8.370;2022-11-15T00:13:28;10.00;99.90
31991;DHT22;18508;49.386;8.370;2022-11-15T00:18:46;8.60;99.90
31991;DHT22;18508;49.386;8.370;2022-11-15T00:21:17;10.00;99.90
31991;DHT22;18508;49.386;8.370;2022-11-15T00:26:19;9.90;99.90
31991;DHT22;18508;49.386;8.370;2022-11-15T00:28:51;10.00;99.90
31991;DHT22;18508;49.386;8.370;2022-11-15T00:31:20;9.90;99.90
31991;DHT22;18508;49.386;8.370;2022-11-15T00:33:55;9.50;99.90
31991;DHT22;18508;49.386;8.370;2022-11-15T00:36:33;9.90;99.90
31991;DHT22;18508;49.386;8.370;2022-11-15T00:39:04;10.00;99.90
31991;DHT22;18508;49.386;8.370;2022-11-15T00:41:33;9.90;99.90
31991;DHT22;18508;49.386;8.370;2022-11-15T00:44:03;9.90;99.90
31991;DHT22;18508;49.386;8.370;2022-11-15T00:46:32;9.90;99.90
31991;DHT22;18508;49.386;8.370;2022-11-15T00:49:02;10.00;99.90
31991;DHT22;18508;49.386;8.370;2022-11-15T00:51:34;10.00;99.90
31991;DHT22;18508;49.386;8.370;2022-11-15T00:54:07;10.00;99.90
31991;DHT22;18508;49.386;8.370;2022-11-15T00:56:36;10.00;99.90
31991;DHT22;18508;49.386;8.370;2022-11-15T00:59:07;10.00;99.90
31991;DHT22;18508;49.386;8.370;2022-11-15T01:01:40;10.00;99.90
31991;DHT22;18508;49.386;8.370;2022-11-15T01:04:11;10.00;99.90
31991;DHT22;18508;49.386;8.370;2022-11-15T01:06:40;10.00;99.90
31991;DHT22;18508;49.386;8.370;2022-11-15T01:09:08;10.00;99.90
31991;DHT22;18508;49.386;8.370;2022-11-15T01:11:38;10.00;99.90
31991;DHT22;18508;49.386;8.370;2022-11-15T01:14:07;10.00;99.90
31991;DHT22;18508;49.386;8.370;2022-11-15T01:16:42;10.00;99.90
31991;DHT22;18508;49.386;8.370;2022-11-15T01:23:23;10.00;99.90
31991;DHT22;18508;49.386;8.370;2022-11-15T01:26:02;10.00;99.90
31991;DHT22;18508;49.386;8.370;2022-11-15T01:28:34;10.10;99.90
31991;DHT22;18508;49.386;8.370;2022-11-15T01:31:13;10.10;99.90
31991;DHT22;18508;49.386;8.370;2022-11-15T01:33:44;10.10;99.90
31991;DHT22;18508;49.386;8.370;2022-11-15T01:36:17;10.00;99.90
31991;DHT22;18508;49.386;8.370;2022-11-15T01:38:53;10.10;99.90
31991;DHT22;18508;49.386;8.370;2022-11-15T01:41:26;10.10;99.90
31991;DHT22;18508;49.386;8.370;2022-11-15T01:43:58;10.10;99.90
31991;DHT22;18508;49.386;8.370;2022-11-15T01:46:54;10.10;99.90
31991;DHT22;18508;49.386;8.370;2022-11-15T01:49:24;10.00;99.90
31991;DHT22;18508;49.386;8.370;2022-11-15T01:51:57;10.00;99.90
31991;DHT22;18508;49.386;8.370;2022-11-15T01:54:45;10.00;99.90
31991;DHT22;18508;49.386;8.370;2022-11-15T01:57:17;9.90;99.90
31991;DHT22;18508;49.386;8.370;2022-11-15T01:59:47;9.90;99.90
31991;DHT22;18508;49.386;8.370;2022-11-15T02:02:21;9.80;99.90
31991;DHT22;18508;49.386;8.370;2022-11-15T02:04:53;9.90;99.90
31991;DHT22;18508;49.386;8.370;2022-11-15T02:07:23;9.90;99.90
31991;DHT22;18508;49.386;8.370;2022-11-15T02:09:55;9.90;99.90
31991;DHT22;18508;49.386;8.370;2022-11-15T02:12:30;10.00;99.90
31991;DHT22;18508;49.386;8.370;2022-11-15T02:15:00;10.00;99.90
31991;DHT22;18508;49.386;8.370;2022-11-15T02:17:55;10.10;99.90
31991;DHT22;18508;49.386;8.370;2022-11-15T02:20:58;10.00;99.90
31991;DHT22;18508;49.386;8.370;2022-11-15T02:29:48;10.20;99.90
31991;DHT22;18508;49.386;8.370;2022-11-15T02:35:29;10.10;99.90
31991;DHT22;18508;49.386;8.370;2022-11-15T02:38:08;10.00;99.90
31991;DHT22;18508;49.386;8.370;2022-11-15T02:40:48;10.00;99.90
31991;DHT22;18508;49.386;8.370;2022-11-15T02:43:34;9.90;99.90
31991;DHT22;18508;49.386;8.370;2022-11-15T02:46:24;9.90;99.90
31991;DHT22;18508;49.386;8.370;2022-11-15T02:49:17;9.90;99.90
31991;DHT22;18508;49.386;8.370;2022-11-15T02:51:51;10.00;99.90
31991;DHT22;18508;49.386;8.370;2022-11-15T02:54:25;10.00;99.90
31991;DHT22;18508;49.386;8.370;2022-11-15T02:57:01;9.90;99.90
31991;DHT22;18508;49.386;8.370;2022-11-15T02:59:49;10.00;99.90
31991;DHT22;18508;49.386;8.370;2022-11-15T03:05:30;10.10;99.90
31991;DHT22;18508;49.386;8.370;2022-11-15T03:08:14;10.00;99.90
31991;DHT22;18508;49.386;8.370;2022-11-15T03:11:01;10.00;99.90
31991;DHT22;18508;49.386;8.370;2022-11-15T03:13:37;9.90;99.90
31991;DHT22;18508;49.386;8.370;2022-11-15T03:16:28;9.90;99.90
31991;DHT22;18508;49.386;8.370;2022-11-15T03:19:08;9.90;99.90
31991;DHT22;18508;49.386;8.370;2022-11-15T03:24:19;9.90;99.90
31991;DHT22;18508;49.386;8.370;2022-11-15T03:26:56;9.90;99.90
31991;DHT22;18508;49.386;8.370;2022-11-15T03:29:36;9.90;99.90
31991;DHT22;18508;49.386;8.370;2022-11-15T03:32:15;9.90;99.90
31991;DHT22;18508;49.386;8.370;2022-11-15T03:34:51;9.90;99.90
31991;DHT22;18508;49.386;8.370;2022-11-15T03:37:31;10.00;99.90
31991;DHT22;18508;49.386;8.370;2022-11-15T03:40:08;9.90;99.90
31991;DHT22;18508;49.386;8.370;2022-11-15T03:43:04;10.00;99.90
31991;DHT22;18508;49.386;8.370;2022-11-15T03:45:43;10.10;99.90
31991;DHT22;18508;49.386;8.370;2022-11-15T03:48:16;8.80;99.90
31991;DHT22;18508;49.386;8.370;2022-11-15T03:50:48;10.10;99.90
31991;DHT22;18508;49.386;8.370;2022-11-15T03:53:18;10.10;99.90
31991;DHT22;18508;49.386;8.370;2022-11-15T03:55:50;10.10;99.90
31991;DHT22;18508;49.386;8.370;2022-11-15T03:58:21;10.20;99.90
31991;DHT22;18508;49.386;8.370;2022-11-15T04:00:54;10.20;99.90
31991;DHT22;18508;49.386;8.370;2022-11-15T04:03:31;10.20;99.90
31991;DHT22;18508;49.386;8.370;2022-11-15T04:06:07;10.20;99.90
31991;DHT22;18508;49.386;8.370;2022-11-15T04:08:39;10.20;99.90
31991;DHT22;18508;49.386;8.370;2022-11-15T04:11:10;10.30;99.90
31991;DHT22;18508;49.386;8.370;2022-11-15T04:13:44;10.30;99.90
31991;DHT22;18508;49.386;8.370;2022-11-15T04:16:17;10.30;99.90
31991;DHT22;18508;49.386;8.370;2022-11-15T04:18:46;10.30;99.90
31991;DHT22;18508;49.386;8.370;2022-11-15T04:21:45;10.30;99.90
31991;DHT22;18508;49.386;8.370;2022-11-15T04:24:31;10.30;99.90
31991;DHT22;18508;49.386;8.370;2022-11-15T04:27:04;10.30;99.90
31991;DHT22;18508;49.386;8.370;2022-11-15T04:29:33;10.30;99.90
31991;DHT22;18508;49.386;8.370;2022-11-15T04:32:06;9.80;99.90
31991;DHT22;18508;49.386;8.370;2022-11-15T04:34:34;10.30;99.90
31991;DHT22;18508;49.386;8.370;2022-11-15T04:37:06;12.50;99.90
31991;DHT22;18508;49.386;8.370;2022-11-15T04:39:44;9.30;99.90
31991;DHT22;18508;49.386;8.370;2022-11-15T04:42:25;10.30;99.90
31991;DHT22;18508;49.386;8.370;2022-11-15T04:47:26;10.30;99.90
31991;DHT22;18508;49.386;8.370;2022-11-15T04:52:25;10.30;99.90
31991;DHT22;18508;49.386;8.370;2022-11-15T04:54:55;10.20;99.90
31991;DHT22;18508;49.386;8.370;2022-11-15T04:57:25;10.20;99.90
31991;DHT22;18508;49.386;8.370;2022-11-15T05:02:35;10.30;99.90
31991;DHT22;18508;49.386;8.370;2022-11-15T05:05:24;10.40;99.90
31991;DHT22;18508;49.386;8.370;2022-11-15T05:07:54;8.60;99.90
31991;DHT22;18508;49.386;8.370;2022-11-15T05:12:55;10.20;99.90
31991;DHT22;18508;49.386;8.370;2022-11-15T05:17:59;10.30;99.90
31991;DHT22;18508;49.386;8.370;2022-11-15T05:20:27;10.30;99.90
31991;DHT22;18508;49.386;8.370;2022-11-15T05:22:59;10.20;99.90
31991;DHT22;18508;49.386;8.370;2022-11-15T05:25:29;10.20;99.90
31991;DHT22;18508;49.386;8.370;2022-11-15T05:28:02;10.30;99.90
31991;DHT22;18508;49.386;8.370;2022-11-15T05:30:33;10.30;99.90
31991;DHT22;18508;49.386;8.370;2022-11-15T05:33:04;10.30;99.90
31991;DHT22;18508;49.386;8.370;2022-11-15T05:35:39;10.30;99.90
31991;DHT22;18508;49.386;8.370;2022-11-15T05:38:10;10.20;99.90
31991;DHT22;18508;49.386;8.370;2022-11-15T05:40:43;10.20;99.90
31991;DHT22;18508;49.386;8.370;2022-11-15T05:43:17;10.10;99.90
31991;DHT22;18508;49.386;8.370;2022-11-15T05:45:46;10.20;99.90
31991;DHT22;18508;49.386;8.370;2022-11-15T05:48:18;10.10;99.90
31991;DHT22;18508;49.386;8.370;2022-11-15T05:50:47;10.10;99.90
31991;DHT22;18508;49.386;8.370;2022-11-15T05:53:19;10.10;99.90
31991;DHT22;18508;49.386;8.370;2022-11-15T05:55:59;10.10;99.90
31991;DHT22;18508;49.386;8.370;2022-11-15T05:58:41;10.00;99.90
31991;DHT22;18508;49.386;8.370;2022-11-15T06:01:12;10.00;99.90
31991;DHT22;18508;49.386;8.370;2022-11-15T06:06:12;9.90;99.90
31991;DHT22;18508;49.386;8.370;2022-11-15T06:08:43;9.90;99.90
31991;DHT22;18508;49.386;8.370;2022-11-15T06:11:14;9.80;99.90
31991;DHT22;18508;49.386;8.370;2022-11-15T06:13:44;9.80;99.90
31991;DHT22;18508;49.386;8.370;2022-11-15T06:16:14;9.70;99.90
31991;DHT22;18508;49.386;8.370;2022-11-15T06:18:45;9.80;99.90
31991;DHT22;18508;49.386;8.370;2022-11-15T06:21:21;9.80;99.90
31991;DHT22;18508;49.386;8.370;2022-11-15T06:26:21;9.90;99.90
31991;DHT22;18508;49.386;8.370;2022-11-15T06:28:52;9.90;99.90
31991;DHT22;18508;49.386;8.370;2022-11-15T06:31:26;9.90;99.90
31991;DHT22;18508;49.386;8.370;2022-11-15T06:34:01;9.90;99.90
31991;DHT22;18508;49.386;8.370;2022-11-15T06:36:30;9.90;99.90
31991;DHT22;18508;49.386;8.370;2022-11-15T06:39:03;9.80;99.90
31991;DHT22;18508;49.386;8.370;2022-11-15T06:41:40;9.80;99.90
31991;DHT22;18508;49.386;8.370;2022-11-15T06:44:19;9.50;99.90
31991;DHT22;18508;49.386;8.370;2022-11-15T06:46:57;9.80;99.90
31991;DHT22;18508;49.386;8.370;2022-11-15T06:51:57;11.90;99.90
31991;DHT22;18508;49.386;8.370;2022-11-15T06:54:37;9.80;99.90
31991;DHT22;18508;49.386;8.370;2022-11-15T06:59:47;9.80;99.90
31991;DHT22;18508;49.386;8.370;2022-11-15T07:02:19;9.80;99.90
31991;DHT22;18508;49.386;8.370;2022-11-15T07:04:51;9.80;99.90
31991;DHT22;18508;49.386;8.370;2022-11-15T07:09:55;9.90;99.90
31991;DHT22;18508;49.386;8.370;2022-11-15T07:12:24;9.90;99.90
31991;DHT22;18508;49.386;8.370;2022-11-15T07:14:56;9.90;99.90
31991;DHT22;18508;49.386;8.370;2022-11-15T07:17:29;9.90;99.90
31991;DHT22;18508;49.386;8.370;2022-11-15T07:20:05;10.00;99.90
31991;DHT22;18508;49.386;8.370;2022-11-15T07:22:37;10.00;99.90
31991;DHT22;18508;49.386;8.370;2022-11-15T07:25:11;10.00;99.90
31991;DHT22;18508;49.386;8.370;2022-11-15T07:30:19;10.00;99.90
31991;DHT22;18508;49.386;8.370;2022-11-15T07:32:54;10.00;99.90
31991;DHT22;18508;49.386;8.370;2022-11-15T07:35:29;10.10;99.90
31991;DHT22;18508;49.386;8.370;2022-11-15T07:38:03;10.10;99.90
31991;DHT22;18508;49.386;8.370;2022-11-15T07:40:37;10.20;99.90
31991;DHT22;18508;49.386;8.370;2022-11-15T07:43:25;10.20;99.90
31991;DHT22;18508;49.386;8.370;2022-11-15T07:46:03;10.30;99.90
31991;DHT22;18508;49.386;8.370;2022-11-15T07:48:38;10.30;99.90
31991;DHT22;18508;49.386;8.370;2022-11-15T07:51:14;10.20;99.90
31991;DHT22;18508;49.386;8.370;2022-11-15T07:53:44;10.30;99.90
31991;DHT22;18508;49.386;8.370;2022-11-15T07:56:14;10.30;99.90
31991;DHT22;18508;49.386;8.370;2022-11-15T07:58:49;10.40;99.90
31991;DHT22;18508;49.386;8.370;2022-11-15T08:01:28;10.50;99.90
31991;DHT22;18508;49.386;8.370;2022-11-15T08:03:58;10.50;99.90
31991;DHT22;18508;49.386;8.370;2022-11-15T08:06:26;10.50;99.90
31991;DHT22;18508;49.386;8.370;2022-11-15T08:09:00;10.50;99.90
31991;DHT22;18508;49.386;8.370;2022-11-15T08:14:00;10.60;99.90
31991;DHT22;18508;49.386;8.370;2022-11-15T08:16:36;10.60;99.90
31991;DHT22;18508;49.386;8.370;2022-11-15T08:19:09;10.60;99.90
31991;DHT22;18508;49.386;8.370;2022-11-15T08:21:41;10.70;99.90
31991;DHT22;18508;49.386;8.370;2022-11-15T08:24:26;10.70;99.90
31991;DHT22;18508;49.386;8.370;2022-11-15T08:27:02;10.80;99.90
31991;DHT22;18508;49.386;8.370;2022-11-15T08:29:45;10.90;99.90
31991;DHT22;18508;49.386;8.370;2022-11-15T08:32:21;10.90;99.90
31991;DHT22;18508;49.386;8.370;2022-11-15T08:34:56;10.90;99.90
31991;DHT22;18508;49.386;8.370;2022-11-15T08:37:26;11.00;99.90
31991;DHT22;18508;49.386;8.370;2022-11-15T08:40:04;10.90;99.90
31991;DHT22;18508;49.386;8.370;2022-11-15T08:42:41;10.90;99.90
31991;DHT22;18508;49.386;8.370;2022-11-15T08:45:18;10.90;99.90
31991;DHT22;18508;49.386;8.370;2022-11-15T08:47:52;10.90;99.90
31991;DHT22;18508;49.386;8.370;2022-11-15T08:50:28;11.00;99.90
31991;DHT22;18508;49.386;8.370;2022-11-15T08:53:37;10.70;99.90
31991;DHT22;18508;49.386;8.370;2022-11-15T08:56:29;11.20;99.90
31991;DHT22;18508;49.386;8.370;2022-11-15T08:59:07;11.20;99.90
31991;DHT22;18508;49.386;8.370;2022-11-15T09:02:05;11.30;99.90
31991;DHT22;18508;49.386;8.370;2022-11-15T09:04:44;11.40;99.90
31991;DHT22;18508;49.386;8.370;2022-11-15T09:07:21;11.40;99.90
31991;DHT22;18508;49.386;8.370;2022-11-15T09:09:52;11.50;99.90
31991;DHT22;18508;49.386;8.370;2022-11-15T09:12:31;11.60;99.90
31991;DHT22;18508;49.386;8.370;2022-11-15T09:15:12;11.50;99.90
31991;DHT22;18508;49.386;8.370;2022-11-15T09:17:53;11.50;99.90
31991;DHT22;18508;49.386;8.370;2022-11-15T09:21:03;11.40;99.90
31991;DHT22;18508;49.386;8.370;2022-11-15T09:23:49;11.50;99.90
31991;DHT22;18508;49.386;8.370;2022-11-15T09:26:36;11.60;99.90
31991;DHT22;18508;49.386;8.370;2022-11-15T09:29:14;11.60;99.90
31991;DHT22;18508;49.386;8.370;2022-11-15T09:31:57;11.60;99.90
31991;DHT22;18508;49.386;8.370;2022-11-15T09:34:37;11.80;99.90
31991;DHT22;18508;49.386;8.370;2022-11-15T09:37:24;11.80;99.90
31991;DHT22;18508;49.386;8.370;2022-11-15T09:40:18;11.90;99.90
31991;DHT22;18508;49.386;8.370;2022-11-15T09:43:24;12.00;99.90
31991;DHT22;18508;49.386;8.370;2022-11-15T09:46:07;12.20;99.90
31991;DHT22;18508;49.386;8.370;2022-11-15T09:48:54;12.20;99.90
31991;DHT22;18508;49.386;8.370;2022-11-15T09:51:50;12.30;99.90
31991;DHT22;18508;49.386;8.370;2022-11-15T09:54:31;12.30;99.90
31991;DHT22;18508;49.386;8.370;2022-11-15T09:57:28;12.40;99.90
31991;DHT22;18508;49.386;8.370;2022-11-15T10:00:19;12.50;99.90
31991;DHT22;18508;49.386;8.370;2022-11-15T10:03:11;12.50;99.90
31991;DHT22;18508;49.386;8.370;2022-11-15T10:06:09;12.50;99.90
31991;DHT22;18508;49.386;8.370;2022-11-15T10:08:58;12.60;99.90
31991;DHT22;18508;49.386;8.370;2022-11-15T10:11:59;13.80;99.90
31991;DHT22;18508;49.386;8.370;2022-11-15T10:14:31;12.60;99.90
31991;DHT22;18508;49.386;8.370;2022-11-15T10:17:23;12.50;99.90
31991;DHT22;18508;49.386;8.370;2022-11-15T10:20:12;12.60;99.90
31991;DHT22;18508;49.386;8.370;2022-11-15T10:22:50;12.70;99.90
31991;DHT22;18508;49.386;8.370;2022-11-15T10:25:51;12.70;99.90
31991;DHT22;18508;49.386;8.370;2022-11-15T10:28:52;12.80;99.90
31991;DHT22;18508;49.386;8.370;2022-11-15T10:31:48;12.90;99.90
31991;DHT22;18508;49.386;8.370;2022-11-15T10:34:23;12.90;99.90
31991;DHT22;18508;49.386;8.370;2022-11-15T10:37:00;13.00;99.90
31991;DHT22;18508;49.386;8.370;2022-11-15T10:39:34;13.00;99.90
31991;DHT22;18508;49.386;8.370;2022-11-15T10:42:17;13.00;99.90
31991;DHT22;18508;49.386;8.370;2022-11-15T10:44:51;13.00;99.90
31991;DHT22;18508;49.386;8.370;2022-11-15T10:47:29;13.00;99.90
31991;DHT22;18508;49.386;8.370;2022-11-15T10:50:24;13.10;99.90
31991;DHT22;18508;49.386;8.370;2022-11-15T10:53:04;13.20;99.90
31991;DHT22;18508;49.386;8.370;2022-11-15T10:55:48;13.20;99.90
31991;DHT22;18508;49.386;8.370;2022-11-15T10:58:38;13.30;99.90
31991;DHT22;18508;49.386;8.370;2022-11-15T11:01:26;13.30;99.90
31991;DHT22;18508;49.386;8.370;2022-11-15T11:06:47;13.40;99.90
31991;DHT22;18508;49.386;8.370;2022-11-15T11:09:37;13.50;99.90
31991;DHT22;18508;49.386;8.370;2022-11-15T11:15:41;13.70;99.90
31991;DHT22;18508;49.386;8.370;2022-11-15T11:22:09;13.80;99.90
31991;DHT22;18508;49.386;8.370;2022-11-15T11:25:18;13.90;99.90
31991;DHT22;18508;49.386;8.370;2022-11-15T11:31:18;14.20;99.90
31991;DHT22;18508;49.386;8.370;2022-11-15T11:34:24;14.10;99.90
31991;DHT22;18508;49.386;8.370;2022-11-15T11:37:05;14.00;99.90
31991;DHT22;18508;49.386;8.370;2022-11-15T11:40:07;14.00;99.90
31991;DHT22;18508;49.386;8.370;2022-11-15T11:42:50;14.20;99.90
31991;DHT22;18508;49.386;8.370;2022-11-15T11:45:49;14.30;99.90
31991;DHT22;18508;49.386;8.370;2022-11-15T11:48:39;14.50;99.90
31991;DHT22;18508;49.386;8.370;2022-11-15T11:51:23;14.50;99.90
31991;DHT22;18508;49.386;8.370;2022-11-15T11:54:03;14.40;99.90
31991;DHT22;18508;49.386;8.370;2022-11-15T11:56:43;14.50;99.90
31991;DHT22;18508;49.386;8.370;2022-11-15T11:59:36;14.50;99.90
31991;DHT22;18508;49.386;8.370;2022-11-15T12:02:33;14.40;99.90
31991;DHT22;18508;49.386;8.370;2022-11-15T12:05:13;14.30;99.90
31991;DHT22;18508;49.386;8.370;2022-11-15T12:08:32;14.30;99.90
31991;DHT22;18508;49.386;8.370;2022-11-15T12:11:20;14.40;99.90
31991;DHT22;18508;49.386;8.370;2022-11-15T12:13:58;14.30;99.90
31991;DHT22;18508;49.386;8.370;2022-11-15T12:19:25;14.30;99.90
31991;DHT22;18508;49.386;8.370;2022-11-15T12:22:12;14.30;99.90
31991;DHT22;18508;49.386;8.370;2022-11-15T12:24:51;14.30;99.90
31991;DHT22;18508;49.386;8.370;2022-11-15T12:27:33;14.30;99.90
31991;DHT22;18508;49.386;8.370;2022-11-15T12:30:10;14.30;99.90
31991;DHT22;18508;49.386;8.370;2022-11-15T12:32:51;14.30;99.90
31991;DHT22;18508;49.386;8.370;2022-11-15T12:35:37;14.30;99.90
31991;DHT22;18508;49.386;8.370;2022-11-15T12:38:15;14.00;99.90
31991;DHT22;18508;49.386;8.370;2022-11-15T12:41:30;14.30;99.90
31991;DHT22;18508;49.386;8.370;2022-11-15T12:44:56;14.30;99.90
31991;DHT22;18508;49.386;8.370;2022-11-15T12:47:27;14.30;99.90
31991;DHT22;18508;49.386;8.370;2022-11-15T12:50:01;14.30;99.90
31991;DHT22;18508;49.386;8.370;2022-11-15T12:52:36;14.30;99.90
31991;DHT22;18508;49.386;8.370;2022-11-15T12:55:33;14.30;99.90
31991;DHT22;18508;49.386;8.370;2022-11-15T12:58:40;14.30;99.90
31991;DHT22;18508;49.386;8.370;2022-11-15T13:04:32;14.20;99.90
31991;DHT22;18508;49.386;8.370;2022-11-15T13:07:07;14.20;99.90
31991;DHT22;18508;49.386;8.370;2022-11-15T13:12:56;14.20;99.90
31991;DHT22;18508;49.386;8.370;2022-11-15T13:15:56;14.30;99.90
31991;DHT22;18508;49.386;8.370;2022-11-15T13:18:38;14.20;99.90
31991;DHT22;18508;49.386;8.370;2022-11-15T13:21:24;14.20;99.90
31991;DHT22;18508;49.386;8.370;2022-11-15T13:24:19;14.20;99.90
31991;DHT22;18508;49.386;8.370;2022-11-15T13:27:02;14.00;99.90
31991;DHT22;18508;49.386;8.370;2022-11-15T13:29:48;14.20;99.90
31991;DHT22;18508;49.386;8.370;2022-11-15T13:32:37;14.20;99.90
31991;DHT22;18508;49.386;8.370;2022-11-15T13:35:24;14.10;99.90
31991;DHT22;18508;49.386;8.370;2022-11-15T13:38:11;14.20;99.90
31991;DHT22;18508;49.386;8.370;2022-11-15T13:40:55;14.20;99.90
31991;DHT22;18508;49.386;8.370;2022-11-15T13:43:39;13.50;99.90
31991;DHT22;18508;49.386;8.370;2022-11-15T13:46:22;14.30;99.90
31991;DHT22;18508;49.386;8.370;2022-11-15T13:49:00;14.10;99.90
31991;DHT22;18508;49.386;8.370;2022-11-15T13:51:47;14.10;99.90
31991;DHT22;18508;49.386;8.370;2022-11-15T13:54:30;14.10;99.90
31991;DHT22;18508;49.386;8.370;2022-11-15T13:57:10;14.10;99.90
31991;DHT22;18508;49.386;8.370;2022-11-15T13:59:51;13.90;99.90
31991;DHT22;18508;49.386;8.370;2022-11-15T14:02:33;14.10;99.90
31991;DHT22;18508;49.386;8.370;2022-11-15T14:05:37;14.10;99.90
31991;DHT22;18508;49.386;8.370;2022-11-15T14:08:22;14.00;99.90
31991;DHT22;18508;49.386;8.370;2022-11-15T14:11:24;14.00;99.90
31991;DHT22;18508;49.386;8.370;2022-11-15T14:14:21;13.90;99.90
31991;DHT22;18508;49.386;8.370;2022-11-15T14:17:21;14.00;99.90
31991;DHT22;18508;49.386;8.370;2022-11-15T14:20:37;13.90;99.90
31991;DHT22;18508;49.386;8.370;2022-11-15T14:23:27;13.90;99.90
31991;DHT22;18508;49.386;8.370;2022-11-15T14:26:30;13.70;99.90
31991;DHT22;18508;49.386;8.370;2022-11-15T14:29:28;13.80;99.90
31991;DHT22;18508;49.386;8.370;2022-11-15T14:32:28;13.80;99.90
31991;DHT22;18508;49.386;8.370;2022-11-15T14:35:15;13.70;99.90
31991;DHT22;18508;49.386;8.370;2022-11-15T14:38:10;13.70;99.90
31991;DHT22;18508;49.386;8.370;2022-11-15T14:40:48;13.70;99.90
31991;DHT22;18508;49.386;8.370;2022-11-15T14:43:29;13.70;99.90
31991;DHT22;18508;49.386;8.370;2022-11-15T14:48:43;13.60;99.90
31991;DHT22;18508;49.386;8.370;2022-11-15T14:51:22;13.50;99.90
31991;DHT22;18508;49.386;8.370;2022-11-15T14:53:57;13.50;99.90
31991;DHT22;18508;49.386;8.370;2022-11-15T14:56:37;13.50;99.90
31991;DHT22;18508;49.386;8.370;2022-11-15T14:59:17;13.50;99.90
31991;DHT22;18508;49.386;8.370;2022-11-15T15:02:07;12.90;99.90
31991;DHT22;18508;49.386;8.370;2022-11-15T15:05:00;13.50;99.90
31991;DHT22;18508;49.386;8.370;2022-11-15T15:07:37;13.50;99.90
31991;DHT22;18508;49.386;8.370;2022-11-15T15:10:37;13.50;99.90
31991;DHT22;18508;49.386;8.370;2022-11-15T15:13:24;13.40;99.90
31991;DHT22;18508;49.386;8.370;2022-11-15T15:16:00;13.40;99.90
31991;DHT22;18508;49.386;8.370;2022-11-15T15:18:41;13.00;99.90
31991;DHT22;18508;49.386;8.370;2022-11-15T15:21:25;13.30;99.90
31991;DHT22;18508;49.386;8.370;2022-11-15T15:24:18;13.30;99.90
31991;DHT22;18508;49.386;8.370;2022-11-15T15:26:59;13.30;99.90
31991;DHT22;18508;49.386;8.370;2022-11-15T15:29:36;13.20;99.90
31991;DHT22;18508;49.386;8.370;2022-11-15T15:32:26;13.20;99.90
31991;DHT22;18508;49.386;8.370;2022-11-15T15:35:02;13.10;99.90
31991;DHT22;18508;49.386;8.370;2022-11-15T15:37:39;13.10;99.90
31991;DHT22;18508;49.386;8.370;2022-11-15T15:40:26;13.10;99.90
31991;DHT22;18508;49.386;8.370;2022-11-15T15:43:24;13.00;99.90
31991;DHT22;18508;49.386;8.370;2022-11-15T15:46:01;13.00;99.90
31991;DHT22;18508;49.386;8.370;2022-11-15T15:48:40;13.00;99.90
31991;DHT22;18508;49.386;8.370;2022-11-15T15:51:12;13.00;99.90
31991;DHT22;18508;49.386;8.370;2022-11-15T15:53:49;12.90;99.90
31991;DHT22;18508;49.386;8.370;2022-11-15T15:56:31;12.90;99.90
31991;DHT22;18508;49.386;8.370;2022-11-15T15:59:13;12.90;99.90
31991;DHT22;18508;49.386;8.370;2022-11-15T16:04:45;12.90;99.90
31991;DHT22;18508;49.386;8.370;2022-11-15T16:10:18;12.90;99.90
31991;DHT22;18508;49.386;8.370;2022-11-15T16:12:49;12.90;99.90
31991;DHT22;18508;49.386;8.370;2022-11-15T16:15:29;13.00;99.90
31991;DHT22;18508;49.386;8.370;2022-11-15T16:18:17;12.90;99.90
31991;DHT22;18508;49.386;8.370;2022-11-15T16:21:02;12.90;99.90
31991;DHT22;18508;49.386;8.370;2022-11-15T16:23:37;12.90;99.90
31991;DHT22;18508;49.386;8.370;2022-11-15T16:26:19;13.20;99.90
31991;DHT22;18508;49.386;8.370;2022-11-15T16:28:49;12.80;99.90
31991;DHT22;18508;49.386;8.370;2022-11-15T16:31:20;12.90;99.90
31991;DHT22;18508;49.386;8.370;2022-11-15T16:33:49;12.80;99.90
31991;DHT22;18508;49.386;8.370;2022-11-15T16:36:22;12.80;99.90
31991;DHT22;18508;49.386;8.370;2022-11-15T16:41:26;12.80;99.90
31991;DHT22;18508;49.386;8.370;2022-11-15T16:44:06;12.80;99.90
31991;DHT22;18508;49.386;8.370;2022-11-15T16:46:42;12.80;99.90
31991;DHT22;18508;49.386;8.370;2022-11-15T16:49:19;12.80;99.90
31991;DHT22;18508;49.386;8.370;2022-11-15T16:51:50;12.80;99.90
31991;DHT22;18508;49.386;8.370;2022-11-15T16:54:23;12.80;99.90
31991;DHT22;18508;49.386;8.370;2022-11-15T16:56:52;12.80;99.90
31991;DHT22;18508;49.386;8.370;2022-11-15T16:59:21;12.70;99.90
31991;DHT22;18508;49.386;8.370;2022-11-15T17:01:52;12.70;99.90
31991;DHT22;18508;49.386;8.370;2022-11-15T17:04:22;12.70;99.90
31991;DHT22;18508;49.386;8.370;2022-11-15T17:06:54;12.70;99.90
31991;DHT22;18508;49.386;8.370;2022-11-15T17:09:23;12.60;99.90
31991;DHT22;18508;49.386;8.370;2022-11-15T17:11:53;12.60;99.90
31991;DHT22;18508;49.386;8.370;2022-11-15T17:14:25;12.60;99.90
31991;DHT22;18508;49.386;8.370;2022-11-15T17:16:57;12.60;99.90
31991;DHT22;18508;49.386;8.370;2022-11-15T17:19:28;12.60;99.90
31991;DHT22;18508;49.386;8.370;2022-11-15T17:22:02;12.60;99.90
31991;DHT22;18508;49.386;8.370;2022-11-15T17:24:32;12.60;99.90
31991;DHT22;18508;49.386;8.370;2022-11-15T17:27:03;12.50;99.90
31991;DHT22;18508;49.386;8.370;2022-11-15T17:29:32;12.50;99.90
31991;DHT22;18508;49.386;8.370;2022-11-15T17:32:02;12.50;99.90
31991;DHT22;18508;49.386;8.370;2022-11-15T17:34:32;12.50;99.90
31991;DHT22;18508;49.386;8.370;2022-11-15T17:37:01;12.40;99.90
31991;DHT22;18508;49.386;8.370;2022-11-15T17:39:29;12.40;99.90
31991;DHT22;18508;49.386;8.370;2022-11-15T17:41:58;12.40;99.90
31991;DHT22;18508;49.386;8.370;2022-11-15T17:44:28;12.40;99.90
31991;DHT22;18508;49.386;8.370;2022-11-15T17:46:58;12.40;99.90
31991;DHT22;18508;49.386;8.370;2022-11-15T17:49:30;12.30;99.90
31991;DHT22;18508;49.386;8.370;2022-11-15T17:52:06;12.30;99.90
31991;DHT22;18508;49.386;8.370;2022-11-15T17:54:37;12.30;99.90
31991;DHT22;18508;49.386;8.370;2022-11-15T17:57:06;12.30;99.90
31991;DHT22;18508;49.386;8.370;2022-11-15T17:59:36;12.30;99.90
31991;DHT22;18508;49.386;8.370;2022-11-15T18:02:05;12.20;99.90
31991;DHT22;18508;49.386;8.370;2022-11-15T18:04:37;12.20;99.90
31991;DHT22;18508;49.386;8.370;2022-11-15T18:07:08;12.20;99.90
31991;DHT22;18508;49.386;8.370;2022-11-15T18:09:38;12.20;99.90
31991;DHT22;18508;49.386;8.370;2022-11-15T18:12:10;12.10;99.90
31991;DHT22;18508;49.386;8.370;2022-11-15T18:14:39;12.10;99.90